Time;durP1;ratioP1;P1;durP2;ratioP2;P2;SDS_P1;SDS_P2;PMS_P1;PMS_P2;Temp;Humidity;BMP_temperature;BMP_pressure;BME280_temperature;BME280_humidity;BME280_pressure;Samples;Min_cycle;Max_cycle;Signal;HPM_P1;HPM_P2
2023/07/12 00:00:33;;;;;;;4.78;2.58;;;;;;;25.03;99.55;97561.69;15277670;19;20074;-73
2023/07/12 00:05:59;;;;;;;5.55;2.70;;;;;;;25.02;100.00;97549.00;15279645;19;20021;-73
2023/07/12 00:11:27;;;;;;;2.88;2.60;;;;;;;24.99;100.00;97546.00;15282606;19;20474;-75
2023/07/12 00:16:55;;;;;;;3.40;2.75;;;;;;;24.93;100.00;97561.69;15278751;19;20031;-74
2023/07/12 00:22:19;;;;;;;3.38;2.58;;;;;;;24.87;99.19;97558.09;15278003;19;20010;-74
2023/07/12 00:27:45;;;;;;;3.17;2.88;;;;;;;24.85;100.00;97557.56;15279417;19;20017;-75
2023/07/12 00:33:12;;;;;;;2.90;2.60;;;;;;;24.79;100.00;97575.19;15280971;19;20428;-74
2023/07/12 00:38:44;;;;;;;4.50;2.65;;;;;;;24.79;100.00;97566.91;15275362;19;20006;-74
2023/07/12 00:44:13;;;;;;;6.23;2.60;;;;;;;24.75;100.00;97572.16;15278046;19;20018;-73
2023/07/12 00:49:40;;;;;;;4.07;2.30;;;;;;;24.77;100.00;97571.88;15276914;19;20014;-73
2023/07/12 00:55:06;;;;;;;4.57;2.00;;;;;;;24.83;100.00;97573.53;15277073;19;20432;-75
2023/07/12 01:00:31;;;;;;;3.28;2.22;;;;;;;24.79;100.00;97577.13;15278887;19;20018;-74
2023/07/12 01:05:59;;;;;;;10.23;1.50;;;;;;;25.00;100.00;97569.66;15278564;19;20028;-74
2023/07/12 01:11:31;;;;;;;8.15;1.27;;;;;;;25.17;100.00;97566.63;15274991;19;20014;-75
2023/07/12 01:17:03;;;;;;;3.65;1.00;;;;;;;25.17;100.00;97561.94;15277908;19;20010;-76
2023/07/12 01:22:34;;;;;;;4.13;1.00;;;;;;;25.14;100.00;97536.88;15278772;19;20029;-76
2023/07/12 01:27:59;;;;;;;3.38;1.00;;;;;;;25.01;100.00;97574.06;15275136;19;20007;-78
2023/07/12 01:33:23;;;;;;;4.63;1.00;;;;;;;24.89;100.00;97590.91;15305791;19;20029;-77
2023/07/12 01:38:58;;;;;;;5.18;0.80;;;;;;;24.74;100.00;97600.00;15292561;19;20017;-77
2023/07/12 01:44:23;;;;;;;2.30;0.88;;;;;;;24.64;100.00;97566.91;15273484;19;20029;-78
2023/07/12 01:49:47;;;;;;;2.40;0.90;;;;;;;24.54;100.00;97565.75;15270052;19;20032;-77
2023/07/12 01:55:16;;;;;;;6.05;1.00;;;;;;;24.45;100.00;97564.66;15271807;19;20018;-77
2023/07/12 02:00:40;;;;;;;2.67;1.00;;;;;;;24.30;100.00;97568.22;15268543;19;20022;-76
2023/07/12 02:06:05;;;;;;;2.10;0.88;;;;;;;24.20;100.00;97566.25;15270794;19;20017;-77
2023/07/12 02:11:32;;;;;;;1.40;0.82;;;;;;;24.11;100.00;97554.94;15270026;19;20021;-76
2023/07/12 02:16:57;;;;;;;2.30;0.80;;;;;;;24.02;100.00;97558.53;15268027;19;20014;-76
2023/07/12 02:22:24;;;;;;;1.92;0.73;;;;;;;23.96;100.00;97568.69;15268433;19;20525;-76
2023/07/12 02:27:53;;;;;;;1.60;0.70;;;;;;;23.87;100.00;97562.81;15267501;19;20003;-76
2023/07/12 02:33:18;;;;;;;3.30;0.80;;;;;;;23.77;100.00;97566.34;15268783;19;20355;-74
2023/07/12 02:38:49;;;;;;;2.05;0.80;;;;;;;23.72;100.00;97560.00;15269479;19;20021;-73
2023/07/12 02:44:17;;;;;;;2.03;0.70;;;;;;;23.65;100.00;97561.09;15271604;19;20570;-75
2023/07/12 02:49:42;;;;;;;2.15;0.80;;;;;;;23.60;100.00;97558.31;15268288;19;20058;-77
2023/07/12 02:55:08;;;;;;;2.17;0.82;;;;;;;23.51;100.00;97554.41;15273968;19;20486;-76
2023/07/12 03:00:35;;;;;;;1.00;0.82;;;;;;;23.42;100.00;97545.03;15263598;19;20032;-75
2023/07/12 03:06:04;;;;;;;1.73;0.80;;;;;;;23.33;100.00;97553.78;15275694;19;20015;-77
2023/07/12 03:11:30;;;;;;;2.45;0.80;;;;;;;23.22;100.00;97549.31;15259940;19;20023;-77
2023/07/12 03:16:58;;;;;;;1.20;0.70;;;;;;;23.12;100.00;97551.94;15262823;19;20473;-78
2023/07/12 03:22:23;;;;;;;2.55;0.70;;;;;;;23.01;100.00;97551.06;15266124;19;20019;-77
2023/07/12 03:27:50;;;;;;;1.00;0.80;;;;;;;22.89;100.00;97548.50;15266908;19;20035;-76
2023/07/12 03:33:17;;;;;;;1.02;0.70;;;;;;;22.84;100.00;97548.47;15271258;19;20017;-78
2023/07/12 03:38:49;;;;;;;0.95;0.77;;;;;;;22.76;100.00;97558.81;15279680;19;20018;-77
2023/07/12 03:44:13;;;;;;;0.80;0.70;;;;;;;22.71;100.00;97578.03;15284394;19;20019;-78
2023/07/12 03:49:41;;;;;;;2.33;0.85;;;;;;;22.66;100.00;97580.72;15279635;19;20014;-79
2023/07/12 03:55:06;;;;;;;2.75;0.80;;;;;;;22.60;100.00;97611.97;15288413;19;20026;-77
2023/07/12 04:00:31;;;;;;;0.98;0.70;;;;;;;22.53;100.00;97611.31;15277260;19;20082;-77
2023/07/12 04:05:59;;;;;;;1.10;0.68;;;;;;;22.46;100.00;97611.56;15280302;19;20014;-76
2023/07/12 04:11:32;;;;;;;2.65;0.70;;;;;;;22.34;100.00;97602.63;15283895;19;20354;-77
2023/07/12 04:17:04;;;;;;;2.00;0.70;;;;;;;22.28;100.00;97599.81;15281496;19;20009;-78
2023/07/12 04:22:31;;;;;;;1.48;0.70;;;;;;;22.22;100.00;97589.88;15284785;19;20473;-76
2023/07/12 04:27:56;;;;;;;1.23;0.77;;;;;;;22.23;100.00;97596.19;15278506;19;20018;-78
2023/07/12 04:33:20;;;;;;;1.48;0.60;;;;;;;22.29;100.00;97611.59;15278699;19;20018;-78
2023/07/12 04:38:55;;;;;;;1.15;0.80;;;;;;;22.31;100.00;97621.25;15275012;19;20570;-79
2023/07/12 04:44:19;;;;;;;0.70;0.70;;;;;;;22.32;100.00;97608.34;15279547;19;20011;-75
2023/07/12 04:49:44;;;;;;;0.88;0.75;;;;;;;22.33;100.00;97588.06;15277409;19;20019;-76
2023/07/12 04:55:25;;;;;;;1.40;0.85;;;;;;;22.30;100.00;97607.75;15279098;19;20106;-77
2023/07/12 05:00:53;;;;;;;0.90;0.80;;;;;;;22.28;100.00;97599.00;15275529;19;20497;-78
2023/07/12 05:06:17;;;;;;;1.13;0.80;;;;;;;22.25;100.00;97611.28;15277853;19;20533;-77
2023/07/12 05:11:44;;;;;;;2.90;0.85;;;;;;;22.26;100.00;97610.19;15276244;19;20011;-77
2023/07/12 05:17:09;;;;;;;0.75;0.70;;;;;;;22.31;100.00;97614.91;15277090;19;20010;-78
2023/07/12 05:22:35;;;;;;;3.88;1.00;;;;;;;22.32;100.00;97622.06;15279950;19;20258;-77
2023/07/12 05:28:02;;;;;;;1.60;0.70;;;;;;;22.40;100.00;97621.59;15281432;19;20912;-79
2023/07/12 05:33:27;;;;;;;1.80;0.70;;;;;;;22.45;100.00;97627.19;15278837;19;20011;-77
2023/07/12 05:38:58;;;;;;;0.88;0.80;;;;;;;22.55;100.00;97628.38;15279219;19;20535;-77
2023/07/12 05:44:30;;;;;;;1.85;0.80;;;;;;;22.62;100.00;97613.34;15324410;19;20015;-77
2023/07/12 05:49:46;;;;;;;5.78;0.90;;;;;;;22.69;100.00;97610.41;15290239;19;20029;-75
2023/07/12 05:55:14;;;;;;;1.52;0.90;;;;;;;22.77;100.00;97620.91;15274356;19;20035;-79
2023/07/12 06:00:42;;;;;;;2.03;0.98;;;;;;;22.83;100.00;97623.69;15269252;19;20023;-76
2023/07/12 06:06:10;;;;;;;0.85;0.68;;;;;;;22.92;100.00;97624.88;15273029;19;20385;-79
2023/07/12 06:11:35;;;;;;;0.60;0.60;;;;;;;23.12;100.00;97626.97;15276593;19;20562;-77
2023/07/12 06:17:02;;;;;;;0.80;0.70;;;;;;;23.32;100.00;97640.06;15272155;19;20651;-79
2023/07/12 06:22:27;;;;;;;2.30;0.60;;;;;;;23.55;100.00;97649.84;15278062;19;20074;-77
2023/07/12 06:27:51;;;;;;;1.52;0.60;;;;;;;23.79;100.00;97654.13;15274658;19;20031;-77
2023/07/12 06:33:19;;;;;;;0.90;0.50;;;;;;;23.92;100.00;97655.53;15280390;19;20082;-79
2023/07/12 06:38:50;;;;;;;1.63;0.80;;;;;;;24.04;100.00;97677.38;15273974;19;20015;-77
2023/07/12 06:44:16;;;;;;;1.15;0.63;;;;;;;24.18;100.00;97685.97;14766012;19;10000477;-76
2023/07/12 06:49:43;;;;;;;2.80;0.60;;;;;;;24.25;100.00;97662.63;15269929;19;20031;-77
2023/07/12 06:55:09;;;;;;;1.08;0.60;;;;;;;24.37;100.00;97681.63;15278644;19;20073;-75
2023/07/12 07:00:34;;;;;;;2.97;0.80;;;;;;;24.47;100.00;97681.66;15273907;19;20022;-76
2023/07/12 07:06:02;;;;;;;2.67;0.73;;;;;;;24.63;100.00;97701.00;15276206;19;20553;-76
2023/07/12 07:11:27;;;;;;;1.40;0.70;;;;;;;24.61;100.00;97709.53;15294207;19;20025;-77
2023/07/12 07:16:52;;;;;;;1.73;1.15;;;;;;;24.59;100.00;97706.22;15293445;19;20031;-76
2023/07/12 07:22:20;;;;;;;2.00;0.90;;;;;;;24.64;100.00;97721.13;15296272;19;20014;-76
2023/07/12 07:27:44;;;;;;;2.97;1.05;;;;;;;24.63;100.00;97720.28;15287010;19;20089;-76
2023/07/12 07:33:09;;;;;;;2.65;0.98;;;;;;;24.67;100.00;97704.03;15292055;19;20018;-76
2023/07/12 07:38:44;;;;;;;1.95;1.20;;;;;;;24.77;100.00;97717.84;15296981;19;20093;-77
2023/07/12 07:44:08;;;;;;;5.47;1.48;;;;;;;24.69;100.00;97710.13;15284531;19;20049;-77
2023/07/12 07:49:33;;;;;;;2.00;0.90;;;;;;;24.70;100.00;97723.63;15277919;19;20031;-77
2023/07/12 07:55:17;;;;;;;2.63;1.10;;;;;;;24.72;100.00;97715.09;15276930;19;20074;-76
2023/07/12 08:00:42;;;;;;;2.90;1.02;;;;;;;24.71;100.00;97721.72;15277765;19;20006;-76
2023/07/12 08:06:08;;;;;;;6.82;1.13;;;;;;;24.71;100.00;97719.78;15287574;19;20018;-77
2023/07/12 08:11:36;;;;;;;4.93;1.20;;;;;;;24.62;100.00;97708.44;15298667;19;20027;-76
2023/07/12 08:17:00;;;;;;;1.80;1.10;;;;;;;24.56;100.00;97723.28;15282481;19;20377;-76
2023/07/12 08:22:26;;;;;;;1.88;1.10;;;;;;;24.54;100.00;97730.97;15284951;19;20025;-77
2023/07/12 08:27:54;;;;;;;3.35;1.20;;;;;;;24.53;100.00;97734.81;15287655;19;20065;-76
2023/07/12 08:33:19;;;;;;;6.88;1.40;;;;;;;24.44;100.00;97742.81;15283878;19;20028;-76
2023/07/12 08:38:51;;;;;;;2.75;1.10;;;;;;;23.96;100.00;97781.31;15288190;19;20109;-77
2023/07/12 08:44:18;;;;;;;7.13;1.23;;;;;;;23.52;100.00;97804.31;15295739;19;20019;-77
2023/07/12 08:49:44;;;;;;;2.90;0.70;;;;;;;23.39;100.00;97807.50;15289738;19;20018;-76
2023/07/12 08:55:18;;;;;;;1.77;0.60;;;;;;;23.60;100.00;97826.94;15277347;19;20032;-77
2023/07/12 09:00:47;;;;;;;3.13;0.60;;;;;;;23.49;100.00;97834.25;15274263;19;20006;-76
2023/07/12 09:06:14;;;;;;;2.13;0.50;;;;;;;23.42;100.00;97841.88;15278398;19;20015;-77
2023/07/12 09:11:42;;;;;;;4.95;0.60;;;;;;;23.27;100.00;97839.81;15277974;19;20093;-77
2023/07/12 09:17:25;;;;;;;2.90;0.60;;;;;;;23.30;100.00;97845.63;15276173;19;20011;-76
2023/07/12 09:22:53;;;;;;;1.60;0.55;;;;;;;23.47;100.00;97850.16;15277949;19;20014;-77
2023/07/12 09:28:18;;;;;;;2.08;0.45;;;;;;;23.60;100.00;97852.50;15268823;19;20609;-76
2023/07/12 09:33:49;;;;;;;1.02;0.50;;;;;;;23.97;100.00;97860.00;15275926;19;20033;-75
2023/07/12 09:39:21;;;;;;;0.55;0.40;;;;;;;24.16;100.00;97856.88;15273917;19;20097;-76
2023/07/12 09:44:47;;;;;;;1.63;0.50;;;;;;;24.38;100.00;97856.72;15281844;19;20035;-76
2023/07/12 09:50:24;;;;;;;0.93;0.30;;;;;;;24.74;100.00;97853.41;15305845;19;20007;-77
2023/07/12 09:55:57;;;;;;;0.40;0.30;;;;;;;24.72;100.00;97855.59;15321261;19;20425;-76
2023/07/12 10:01:33;;;;;;;1.10;0.47;;;;;;;24.87;100.00;97839.09;15267719;19;20018;-75
2023/07/12 10:07:01;;;;;;;2.05;0.70;;;;;;;25.28;100.00;97859.66;15270535;19;20117;-76
2023/07/12 10:12:35;;;;;;;1.13;0.80;;;;;;;25.58;100.00;97847.06;15273130;19;20015;-76
2023/07/12 10:18:06;;;;;;;1.50;0.70;;;;;;;25.65;100.00;97847.63;15283052;19;20019;-78
2023/07/12 10:23:41;;;;;;;1.00;0.80;;;;;;;25.62;100.00;97842.66;15281211;19;20043;-77
2023/07/12 10:29:13;;;;;;;1.83;1.05;;;;;;;25.76;100.00;97840.16;15283960;19;20501;-76
2023/07/12 10:34:44;;;;;;;1.75;0.80;;;;;;;25.92;99.33;97839.06;15262843;19;20134;-77
2023/07/12 10:40:12;;;;;;;1.00;0.60;;;;;;;25.99;94.45;97847.06;15268791;19;20011;-76
2023/07/12 10:45:40;;;;;;;1.70;0.80;;;;;;;26.15;87.96;97839.63;15285782;19;20481;-77
2023/07/12 10:51:21;;;;;;;1.40;0.70;;;;;;;26.10;82.08;97823.91;15287678;19;20354;-77
2023/07/12 10:56:57;;;;;;;0.95;0.60;;;;;;;26.22;80.72;97839.34;15286062;19;20006;-77
2023/07/12 11:02:30;;;;;;;1.25;0.60;;;;;;;26.36;79.38;97845.13;15281965;19;20413;-77
2023/07/12 11:07:56;;;;;;;1.42;0.80;;;;;;;26.46;79.41;97840.44;15276746;19;20017;-77
2023/07/12 11:13:24;;;;;;;1.17;0.60;;;;;;;26.29;74.04;97840.72;15282928;19;20037;-76
2023/07/12 11:18:54;;;;;;;3.90;0.82;;;;;;;26.59;70.00;97843.72;15279957;19;20014;-76
2023/07/12 11:24:30;;;;;;;1.10;0.50;;;;;;;26.49;68.94;97852.84;15285321;19;20011;-77
2023/07/12 11:30:09;;;;;;;3.08;0.50;;;;;;;26.42;67.89;97838.50;15280751;19;20115;-77
2023/07/12 11:35:46;;;;;;;4.13;0.63;;;;;;;26.57;68.04;97852.28;15286814;19;20112;-77
2023/07/12 11:41:17;;;;;;;0.70;0.40;;;;;;;26.69;70.04;97851.16;15281928;19;20010;-77
2023/07/12 11:46:48;;;;;;;2.47;0.70;;;;;;;26.58;68.12;97826.28;15279880;19;20010;-77
2023/07/12 11:52:16;;;;;;;0.97;0.60;;;;;;;26.70;69.24;97834.28;15285883;19;20014;-76
2023/07/12 11:57:48;;;;;;;2.13;0.63;;;;;;;26.66;67.33;97835.94;15278700;19;20014;-76
2023/07/12 12:03:16;;;;;;;2.38;0.60;;;;;;;26.91;68.46;97850.81;15275607;19;20025;-77
2023/07/12 12:08:35;;;;;;;1.55;0.50;;;;;;;27.10;66.79;97844.66;15275253;19;20086;-77
2023/07/12 12:14:02;;;;;;;1.10;0.50;;;;;;;27.39;65.52;97847.53;15278945;19;20006;-78
2023/07/12 12:19:31;;;;;;;0.68;0.50;;;;;;;27.44;64.99;97857.75;15287702;19;20018;-77
2023/07/12 12:24:58;;;;;;;1.53;0.50;;;;;;;27.32;64.42;97856.16;15289267;19;20017;-77
2023/07/12 12:30:26;;;;;;;2.05;0.70;;;;;;;27.22;64.60;97847.91;15281970;19;20019;-77
2023/07/12 12:35:58;;;;;;;1.50;0.50;;;;;;;27.21;64.64;97849.03;15280143;19;20043;-77
2023/07/12 12:41:23;;;;;;;1.85;0.60;;;;;;;27.54;63.45;97821.75;15275904;19;20014;-77
2023/07/12 12:46:49;;;;;;;2.58;0.50;;;;;;;27.66;63.53;97830.50;15278398;19;20032;-77
2023/07/12 12:52:27;;;;;;;2.45;0.57;;;;;;;27.68;63.85;97835.75;15282335;19;20034;-77
2023/07/12 12:58:11;;;;;;;1.00;0.60;;;;;;;27.75;62.61;97840.97;15278439;19;20420;-77
2023/07/12 13:03:56;;;;;;;0.98;0.60;;;;;;;27.82;61.58;97845.06;15220509;19;20658;-77
2023/07/12 13:09:34;;;;;;;4.22;0.60;;;;;;;27.87;60.49;97838.66;15279271;19;20469;-78
2023/07/12 13:15:02;;;;;;;3.75;0.80;;;;;;;27.84;59.00;97848.38;15284912;19;20016;-78
2023/07/12 13:20:33;;;;;;;2.50;0.40;;;;;;;27.79;58.93;97842.03;15283577;19;20010;-79
2023/07/12 13:26:01;;;;;;;1.08;0.60;;;;;;;27.80;57.75;97838.16;15285565;19;20462;-78
2023/07/12 13:31:28;;;;;;;5.63;0.55;;;;;;;27.76;57.71;97837.88;15294235;19;20589;-78
2023/07/12 13:36:53;;;;;;;2.20;0.50;;;;;;;28.03;56.68;97849.59;15289338;19;20015;-78
2023/07/12 13:42:22;;;;;;;0.40;0.40;;;;;;;28.29;54.21;97839.94;15281575;19;20134;-79
2023/07/12 13:48:03;;;;;;;1.15;0.40;;;;;;;28.27;53.79;97863.53;15278353;19;20007;-77
2023/07/12 13:53:27;;;;;;;1.83;0.40;;;;;;;28.41;54.57;97855.34;15288181;19;20049;-78
2023/07/12 13:58:54;;;;;;;2.38;0.50;;;;;;;28.52;52.19;97845.81;15285978;19;20007;-78
2023/07/12 14:04:46;;;;;;;0.60;0.40;;;;;;;28.39;52.20;97849.31;15297281;19;20349;-78
2023/07/12 14:10:31;;;;;;;2.38;0.30;;;;;;;28.71;51.06;97861.69;15343620;19;20014;-78
2023/07/12 14:15:59;;;;;;;1.75;0.40;;;;;;;28.80;49.41;97848.06;15272841;19;20410;-77
2023/07/12 14:21:24;;;;;;;3.30;0.50;;;;;;;28.90;49.29;97842.38;15270270;19;20014;-76
2023/07/12 14:26:49;;;;;;;0.68;0.50;;;;;;;28.82;50.38;97835.53;15271096;19;20021;-76
2023/07/12 14:32:25;;;;;;;0.75;0.40;;;;;;;28.98;50.70;97835.34;15271760;19;20074;-77
2023/07/12 14:37:59;;;;;;;1.25;0.43;;;;;;;29.06;49.22;97823.59;15270656;19;20030;-76
2023/07/12 14:43:24;;;;;;;4.22;0.68;;;;;;;29.31;50.06;97819.63;15277992;19;20018;-75
2023/07/12 14:48:51;;;;;;;1.08;0.40;;;;;;;29.13;47.78;97815.72;15268780;19;20036;-76
2023/07/12 14:54:16;;;;;;;0.82;0.43;;;;;;;29.28;49.03;97802.78;15269130;19;20070;-75
2023/07/12 14:59:40;;;;;;;0.60;0.40;;;;;;;29.77;48.31;97797.88;15267707;19;20490;-76
2023/07/12 15:05:09;;;;;;;2.28;0.40;;;;;;;29.72;47.21;97795.19;15284038;19;20442;-77
2023/07/12 15:10:33;;;;;;;1.73;0.40;;;;;;;29.59;48.01;97807.88;15278298;19;20440;-77
2023/07/12 15:15:58;;;;;;;1.38;0.40;;;;;;;30.01;47.06;97814.44;15281905;19;20007;-78
2023/07/12 15:21:30;;;;;;;1.40;0.40;;;;;;;30.13;47.38;97814.78;15275000;19;20074;-77
2023/07/12 15:26:55;;;;;;;0.60;0.50;;;;;;;29.78;46.19;97814.25;15271802;19;20561;-77
2023/07/12 15:32:20;;;;;;;1.45;0.70;;;;;;;29.99;46.58;97822.25;15295395;19;20010;-77
2023/07/12 15:37:49;;;;;;;1.77;0.40;;;;;;;29.97;46.35;97817.00;15286657;19;20059;-76
2023/07/12 15:43:21;;;;;;;2.47;0.40;;;;;;;29.72;46.56;97823.78;15292538;19;20014;-78
2023/07/12 15:48:53;;;;;;;1.50;0.50;;;;;;;29.49;47.18;97820.78;15294647;19;20014;-78
2023/07/12 15:54:26;;;;;;;2.83;0.40;;;;;;;29.67;46.85;97829.41;15287565;19;20014;-77
2023/07/12 15:59:50;;;;;;;1.42;0.50;;;;;;;29.09;48.37;97836.03;15288947;19;20561;-79
2023/07/12 16:05:18;;;;;;;2.22;0.30;;;;;;;29.41;48.20;97835.34;15295345;19;20019;-79
2023/07/12 16:10:45;;;;;;;0.40;0.40;;;;;;;29.00;48.08;97831.16;15301266;19;20031;-77
2023/07/12 16:16:17;;;;;;;0.65;0.50;;;;;;;29.04;49.03;97845.25;15294502;19;20011;-78
2023/07/12 16:21:43;;;;;;;0.57;0.38;;;;;;;28.62;49.43;97836.56;15296040;19;20017;-78
2023/07/12 16:27:13;;;;;;;1.23;0.50;;;;;;;28.10;50.34;97842.66;15297389;19;20019;-78
2023/07/12 16:32:38;;;;;;;0.95;0.43;;;;;;;27.61;51.42;97841.59;15299156;19;20006;-78
2023/07/12 16:38:05;;;;;;;0.90;0.50;;;;;;;27.90;51.18;97834.47;15299958;19;20561;-79
2023/07/12 16:43:36;;;;;;;0.52;0.40;;;;;;;28.26;51.28;97835.03;15296720;19;20007;-80
2023/07/12 16:49:04;;;;;;;1.25;0.45;;;;;;;27.93;51.02;97853.28;15300068;19;20019;-79
2023/07/12 16:54:28;;;;;;;0.93;0.40;;;;;;;28.09;51.72;97848.44;15301039;19;20015;-80
2023/07/12 16:59:57;;;;;;;0.45;0.40;;;;;;;27.51;51.69;97852.75;15297884;19;20414;-79
2023/07/12 17:05:25;;;;;;;0.70;0.50;;;;;;;27.90;52.35;97848.31;15301469;19;20011;-80
2023/07/12 17:10:51;;;;;;;0.40;0.40;;;;;;;27.77;51.75;97845.09;15307160;19;20018;-80
2023/07/12 17:16:21;;;;;;;3.83;0.50;;;;;;;27.71;52.40;97848.16;15302614;19;20082;-78
2023/07/12 17:21:46;;;;;;;0.80;0.50;;;;;;;27.67;52.38;97851.53;15294868;19;20031;-78
2023/07/12 17:27:10;;;;;;;1.20;0.40;;;;;;;27.46;53.16;97844.50;15274715;19;21133;-78
2023/07/12 17:32:38;;;;;;;0.40;0.40;;;;;;;27.37;54.11;97836.75;15272864;19;20800;-78
2023/07/12 17:38:02;;;;;;;0.57;0.40;;;;;;;27.24;53.59;97834.59;15279932;19;20018;-78
2023/07/12 17:43:30;;;;;;;0.63;0.43;;;;;;;27.01;54.15;97836.13;15274356;19;20018;-80
2023/07/12 17:48:57;;;;;;;1.30;0.60;;;;;;;26.93;53.91;97832.00;15280328;19;20595;-79
2023/07/12 17:54:22;;;;;;;0.95;0.47;;;;;;;26.68;55.02;97828.19;15292759;19;20640;-79
2023/07/12 17:59:48;;;;;;;0.50;0.45;;;;;;;26.58;55.58;97831.81;15293387;19;20022;-80
2023/07/12 18:05:28;;;;;;;0.75;0.50;;;;;;;26.33;56.34;97824.44;15289716;19;20014;-78
2023/07/12 18:10:58;;;;;;;3.22;0.60;;;;;;;26.32;56.53;97833.81;15289405;19;20082;-77
2023/07/12 18:16:23;;;;;;;1.85;0.65;;;;;;;26.26;56.87;97834.94;15282606;19;20018;-78
2023/07/12 18:21:50;;;;;;;1.52;0.45;;;;;;;26.16;55.93;97835.78;15290865;19;20017;-77
2023/07/12 18:27:18;;;;;;;1.58;0.40;;;;;;;26.09;55.86;97838.78;15340060;19;20030;-78
2023/07/12 18:32:42;;;;;;;2.28;0.43;;;;;;;25.96;55.66;97844.88;15267865;19;20002;-67
2023/07/12 18:38:10;;;;;;;0.60;0.30;;;;;;;25.76;55.63;97852.03;15265531;19;20070;-67
2023/07/12 18:43:34;;;;;;;2.42;0.50;;;;;;;25.65;56.56;97859.47;15264891;19;20018;-67
2023/07/12 18:49:00;;;;;;;1.20;0.50;;;;;;;25.44;56.27;97875.19;15268887;19;20035;-66
2023/07/12 18:54:28;;;;;;;1.27;0.50;;;;;;;25.32;56.63;97875.38;15268727;19;20049;-67
2023/07/12 18:59:53;;;;;;;0.75;0.30;;;;;;;25.17;56.76;97873.41;15266840;19;20077;-66
2023/07/12 19:05:27;;;;;;;5.30;0.52;;;;;;;25.05;56.45;97878.31;15271988;19;20090;-67
2023/07/12 19:10:55;;;;;;;1.52;0.43;;;;;;;24.61;56.57;97885.78;15253177;19;20332;-68
2023/07/12 19:16:20;;;;;;;0.95;0.40;;;;;;;24.47;56.14;97901.13;15281647;19;20634;-67
2023/07/12 19:21:52;;;;;;;0.77;0.40;;;;;;;24.25;55.33;97891.06;15283561;19;21310;-67
2023/07/12 19:27:26;;;;;;;1.05;0.40;;;;;;;24.06;56.09;97909.88;15290226;19;20023;-64
2023/07/12 19:33:06;;;;;;;0.40;0.40;;;;;;;23.82;56.96;97904.69;15277204;19;20025;-66
2023/07/12 19:38:31;;;;;;;0.75;0.30;;;;;;;23.66;57.49;97922.97;15279850;19;20078;-65
2023/07/12 19:43:59;;;;;;;0.57;0.35;;;;;;;23.50;57.87;97913.72;15273607;19;20090;-67
2023/07/12 19:49:25;;;;;;;0.95;0.40;;;;;;;23.32;58.10;97936.91;15278035;19;20013;-66
2023/07/12 19:54:51;;;;;;;2.15;0.40;;;;;;;23.27;58.43;97931.31;15279311;19;20018;-68
2023/07/12 20:00:19;;;;;;;1.38;0.40;;;;;;;23.16;58.92;97943.25;15275160;19;21322;-65
2023/07/12 20:05:44;;;;;;;1.08;0.40;;;;;;;23.12;58.95;97950.31;15273291;19;20014;-65
2023/07/12 20:11:11;;;;;;;2.88;0.30;;;;;;;23.06;59.77;97966.75;15272643;19;20019;-66
2023/07/12 20:16:40;;;;;;;1.45;0.40;;;;;;;22.99;58.89;97977.09;15272580;19;20368;-68
2023/07/12 20:22:12;;;;;;;1.35;0.60;;;;;;;22.94;59.75;97980.59;15276418;19;20011;-66
2023/07/12 20:27:36;;;;;;;1.02;0.35;;;;;;;22.92;60.24;97981.94;15274433;19;20014;-66
2023/07/12 20:33:11;;;;;;;1.30;0.50;;;;;;;22.85;59.95;97990.34;15271294;19;20013;-66
2023/07/12 20:38:36;;;;;;;2.28;0.40;;;;;;;22.84;59.79;97998.84;15274777;19;20026;-64
2023/07/12 20:44:01;;;;;;;1.90;0.28;;;;;;;22.81;61.00;97993.84;15265502;19;20223;-64
2023/07/12 20:49:30;;;;;;;1.10;0.52;;;;;;;22.76;60.78;97995.44;15271931;19;20483;-65
2023/07/12 20:54:56;;;;;;;2.70;0.45;;;;;;;22.74;60.73;98011.34;15272102;19;20701;-65
2023/07/12 21:00:23;;;;;;;1.48;0.50;;;;;;;22.68;61.85;98012.34;15272723;19;20071;-65
2023/07/12 21:06:10;;;;;;;2.45;0.43;;;;;;;22.69;61.85;98008.50;15270561;19;20376;-67
2023/07/12 21:11:35;;;;;;;0.63;0.40;;;;;;;22.60;62.72;98018.25;15273983;19;20007;-64
2023/07/12 21:16:59;;;;;;;3.15;0.52;;;;;;;22.49;63.05;98017.25;15270876;19;20018;-65
2023/07/12 21:22:27;;;;;;;1.02;0.50;;;;;;;22.37;63.89;98021.94;15273152;19;20014;-64
2023/07/12 21:27:52;;;;;;;0.30;0.30;;;;;;;22.31;63.54;98021.03;15270608;19;20025;-65
2023/07/12 21:33:25;;;;;;;0.60;0.40;;;;;;;22.28;64.71;98029.78;15268301;19;20010;-64
2023/07/12 21:38:54;;;;;;;2.10;0.50;;;;;;;22.18;65.70;98022.19;15271277;19;20010;-64
2023/07/12 21:44:18;;;;;;;3.70;0.43;;;;;;;22.03;66.09;98039.19;15269545;19;20018;-64
2023/07/12 21:49:43;;;;;;;1.13;0.50;;;;;;;21.96;67.11;98038.50;15268751;19;20350;-66
2023/07/12 21:55:10;;;;;;;1.27;0.50;;;;;;;21.91;67.42;98032.94;15271022;19;20018;-67
2023/07/12 22:00:36;;;;;;;2.25;0.50;;;;;;;21.82;68.78;98030.56;15268807;19;20011;-64
2023/07/12 22:06:01;;;;;;;1.17;0.52;;;;;;;21.76;70.37;98017.00;15267701;19;20486;-65
2023/07/12 22:11:33;;;;;;;1.92;0.50;;;;;;;21.70;71.65;98038.00;15270488;19;20028;-65
2023/07/12 22:16:58;;;;;;;0.75;0.40;;;;;;;21.66;72.72;98043.13;15269216;19;20399;-67
2023/07/12 22:22:24;;;;;;;1.15;0.40;;;;;;;21.66;74.67;98036.81;15268225;19;20362;-67
2023/07/12 22:27:52;;;;;;;1.25;0.50;;;;;;;21.63;76.08;98043.63;15269041;19;20567;-66
2023/07/12 22:33:23;;;;;;;2.10;0.68;;;;;;;21.57;77.73;98050.03;15265485;19;20019;-66
2023/07/12 22:38:51;;;;;;;3.20;0.57;;;;;;;21.41;80.87;98062.59;15265421;19;20018;-66
2023/07/12 22:44:18;;;;;;;0.45;0.40;;;;;;;21.33;81.89;98049.28;15267595;19;20357;-66
2023/07/12 22:49:43;;;;;;;1.77;0.52;;;;;;;21.29;83.09;98048.06;15267018;19;20011;-64
2023/07/12 22:55:07;;;;;;;0.93;0.55;;;;;;;21.25;82.55;98032.09;15261251;19;20014;-64
2023/07/12 23:00:35;;;;;;;2.42;0.50;;;;;;;21.28;81.61;98043.66;15263900;19;20468;-64
2023/07/12 23:06:01;;;;;;;1.05;0.40;;;;;;;21.25;88.04;98048.53;15264319;19;20023;-65
2023/07/12 23:11:26;;;;;;;0.90;0.43;;;;;;;21.18;96.44;98036.88;15268049;19;20471;-67
2023/07/12 23:16:53;;;;;;;2.67;0.50;;;;;;;21.13;99.21;98022.25;15267575;19;20094;-64
2023/07/12 23:22:19;;;;;;;1.10;0.50;;;;;;;21.05;100.00;98042.63;15267104;19;20011;-65
2023/07/12 23:27:46;;;;;;;1.48;0.60;;;;;;;21.01;100.00;98041.41;15262718;19;20036;-64
2023/07/12 23:33:21;;;;;;;0.52;0.32;;;;;;;20.96;97.89;98052.25;15263270;19;20383;-65
2023/07/12 23:38:46;;;;;;;0.95;0.50;;;;;;;20.91;99.17;98072.97;15266240;19;20089;-66
2023/07/12 23:44:11;;;;;;;1.23;0.47;;;;;;;20.78;100.00;98075.94;15264392;19;20385;-66
2023/07/12 23:49:40;;;;;;;1.25;0.40;;;;;;;20.54;100.00;98088.72;15266876;19;20029;-67
2023/07/12 23:55:04;;;;;;;1.00;0.52;;;;;;;20.41;100.00;98082.38;15281124;19;20022;-65
